Time;durP1;ratioP1;P1;durP2;ratioP2;P2;SDS_P1;SDS_P2;PMS_P1;PMS_P2;Temp;Humidity;BMP_temperature;BMP_pressure;BME280_temperature;BME280_humidity;BME280_pressure;Samples;Min_cycle;Max_cycle;Signal;HPM_P1;HPM_P2
2021/01/29 10:35:20;;;;;;;6.27;2.00;;;;;;;8.36;99.14;96990.47;5138326;27;20497;-82
2021/01/29 10:38:00;;;;;;;6.37;1.07;;;;;;;8.56;96.87;96974.63;5127354;27;40291;-79
2021/01/29 10:40:34;;;;;;;1.90;0.90;;;;;;;9.13;93.65;96981.22;5135416;27;42225;-81
2021/01/29 10:43:09;;;;;;;4.53;1.00;;;;;;;9.61;91.02;97022.81;5110241;27;43344;-80
2021/01/29 10:46:18;;;;;;;4.63;1.20;;;;;;;9.77;86.25;97001.16;5107127;28;43560;-85
2021/01/29 10:48:53;;;;;;;3.13;0.90;;;;;;;10.09;85.43;97015.81;5086284;28;40067;-82
2021/01/29 10:51:36;;;;;;;5.43;1.30;;;;;;;10.21;83.84;97021.81;5108440;27;41128;-81
2021/01/29 10:54:06;;;;;;;5.10;1.27;;;;;;;10.23;82.77;97025.16;5105893;28;43597;-80
2021/01/29 10:56:45;;;;;;;5.90;1.10;;;;;;;10.36;80.97;97032.84;5089353;28;41162;-82
2021/01/29 10:59:19;;;;;;;3.47;1.47;;;;;;;10.41;80.55;97031.44;5106054;28;39938;-81
2021/01/29 11:01:54;;;;;;;5.50;1.33;;;;;;;10.44;78.87;97039.09;5089802;28;40648;-81
2021/01/29 11:04:27;;;;;;;4.87;1.30;;;;;;;10.38;78.18;97013.22;5102041;27;42845;-81
2021/01/29 11:07:00;;;;;;;4.77;1.50;;;;;;;10.53;78.05;97023.34;5088333;28;42050;-82
2021/01/29 11:09:31;;;;;;;6.93;1.20;;;;;;;10.67;77.37;97036.16;5087535;28;39144;-80
2021/01/29 11:12:16;;;;;;;6.27;1.57;;;;;;;10.70;76.97;97041.16;5104738;28;41989;-82
2021/01/29 11:14:53;;;;;;;7.50;1.50;;;;;;;10.63;75.28;97040.06;5105241;28;42600;-82
2021/01/29 11:17:25;;;;;;;7.80;1.90;;;;;;;10.71;75.34;97053.44;5088938;28;41102;-82
2021/01/29 11:19:54;;;;;;;6.33;1.77;;;;;;;10.79;73.83;97042.97;5089272;28;38656;-81
2021/01/29 11:22:39;;;;;;;6.20;1.50;;;;;;;10.84;73.71;97048.69;5122342;27;40996;-83
2021/01/29 11:25:21;;;;;;;6.60;1.70;;;;;;;10.91;73.42;97044.47;5085497;28;42036;-82
2021/01/29 11:27:58;;;;;;;6.73;1.90;;;;;;;11.01;73.27;97055.03;5085702;28;42511;-83
2021/01/29 11:30:32;;;;;;;7.57;2.10;;;;;;;11.14;73.08;97035.22;5092443;28;39939;-81
2021/01/29 11:33:02;;;;;;;3.17;1.07;;;;;;;11.33;73.07;97052.06;5104880;28;42082;-82
2021/01/29 11:35:41;;;;;;;5.23;1.70;;;;;;;11.49;71.65;97044.34;5105695;28;41946;-82
2021/01/29 11:38:37;;;;;;;4.23;1.30;;;;;;;11.58;71.79;97027.53;5088184;28;41037;-81
2021/01/29 11:41:11;;;;;;;6.00;1.53;;;;;;;11.96;68.49;97070.78;5086061;28;39220;-80
2021/01/29 11:43:47;;;;;;;6.10;1.63;;;;;;;11.98;68.53;97063.53;5103785;28;40517;-81
2021/01/29 11:46:25;;;;;;;6.60;1.50;;;;;;;11.99;68.59;97052.72;5094469;27;42709;-82
2021/01/29 11:48:58;;;;;;;6.73;2.00;;;;;;;12.21;69.31;97078.03;5091711;28;41125;-81
2021/01/29 11:51:39;;;;;;;6.10;1.67;;;;;;;12.28;68.54;97094.19;5108901;28;39018;-82
2021/01/29 11:54:35;;;;;;;8.00;2.77;;;;;;;12.21;68.38;97084.19;5074432;28;40676;-81
2021/01/29 11:57:08;;;;;;;5.63;1.50;;;;;;;12.11;68.36;97071.97;5124102;27;43512;-82
2021/01/29 11:59:48;;;;;;;6.03;1.63;;;;;;;12.03;69.35;97079.81;5091591;28;42053;-82
2021/01/29 12:02:24;;;;;;;8.43;1.77;;;;;;;11.75;67.74;97077.16;5090309;28;39932;-81
2021/01/29 12:04:58;;;;;;;6.03;1.70;;;;;;;11.75;68.03;97081.59;5073603;28;40914;-81
2021/01/29 12:07:32;;;;;;;7.87;1.73;;;;;;;11.60;69.19;97053.91;5084930;28;42752;-82
2021/01/29 12:10:07;;;;;;;5.73;1.70;;;;;;;11.75;68.85;97095.72;5074725;28;41370;-84
2021/01/29 12:12:42;;;;;;;5.33;1.83;;;;;;;11.53;68.33;97072.19;5074114;28;39056;-81
2021/01/29 12:15:14;;;;;;;5.17;1.47;;;;;;;11.66;69.07;97085.13;5091509;28;42325;-83
2021/01/29 12:17:51;;;;;;;6.77;1.60;;;;;;;11.59;67.20;97086.69;5090747;28;41914;-82
2021/01/29 12:20:23;;;;;;;7.63;1.70;;;;;;;11.60;68.51;97062.69;5090144;28;42336;-82
2021/01/29 12:23:06;;;;;;;5.00;1.60;;;;;;;11.66;68.39;97072.69;5108117;28;38918;-82
2021/01/29 12:25:52;;;;;;;5.50;2.47;;;;;;;11.85;68.18;97093.03;5091054;28;41732;-82
2021/01/29 12:28:32;;;;;;;6.83;1.50;;;;;;;11.84;67.69;97096.69;5090497;28;42213;-83
2021/01/29 12:31:10;;;;;;;6.00;2.00;;;;;;;11.67;69.15;97084.97;5073576;28;42534;-80
2021/01/29 12:33:47;;;;;;;5.53;1.40;;;;;;;11.56;70.21;97102.88;5090136;28;40082;-82
2021/01/29 12:36:19;;;;;;;6.07;2.10;;;;;;;11.47;71.47;97083.41;5107877;28;41877;-79
2021/01/29 12:38:54;;;;;;;8.57;1.77;;;;;;;11.57;71.45;97092.16;5073989;28;42768;-81
2021/01/29 12:41:36;;;;;;;4.13;1.23;;;;;;;11.76;71.71;97068.22;5090189;28;41889;-80
2021/01/29 12:44:23;;;;;;;6.80;1.80;;;;;;;11.85;70.84;97083.28;5090790;28;38975;-83
2021/01/29 12:47:01;;;;;;;5.40;1.77;;;;;;;11.63;71.06;97074.81;5089738;28;42365;-80
2021/01/29 12:49:38;;;;;;;5.90;1.70;;;;;;;11.49;72.08;97057.59;5091170;28;42717;-81
2021/01/29 12:52:13;;;;;;;4.60;1.47;;;;;;;11.28;73.09;97041.03;5073505;28;40875;-80
2021/01/29 12:54:48;;;;;;;6.10;1.50;;;;;;;11.62;73.83;97071.31;5090653;28;39545;-80
2021/01/29 12:57:20;;;;;;;7.00;1.53;;;;;;;11.72;73.52;97077.44;5087361;28;41489;-79
2021/01/29 12:59:50;;;;;;;6.20;1.50;;;;;;;11.74;74.14;97075.47;5072579;28;42002;-79
2021/01/29 13:03:05;;;;;;;4.47;1.60;;;;;;;11.77;73.46;97069.88;5072378;28;41172;-80
2021/01/29 13:05:47;;;;;;;4.37;1.60;;;;;;;11.60;73.75;97061.88;5048446;28;40483;-80
2021/01/29 13:08:47;;;;;;;5.70;1.50;;;;;;;11.45;74.58;97070.28;4997731;28;40833;-81
2021/01/29 13:11:35;;;;;;;4.27;1.40;;;;;;;11.24;75.44;97061.72;5056430;28;41741;-82
2021/01/29 13:14:15;;;;;;;5.37;1.50;;;;;;;11.19;75.92;97074.53;5089179;28;42133;-83
2021/01/29 13:16:48;;;;;;;7.23;1.50;;;;;;;11.00;77.06;97059.50;5069935;28;38856;-83
2021/01/29 13:19:26;;;;;;;6.17;1.50;;;;;;;11.35;78.04;97058.88;5069946;28;41829;-86
2021/01/29 13:21:55;;;;;;;4.53;2.60;;;;;;;11.50;77.42;97043.31;5069406;28;42813;-85
2021/01/29 13:24:28;;;;;;;5.70;1.93;;;;;;;11.80;76.93;97037.78;5053081;28;41015;-84
2021/01/29 13:27:00;;;;;;;6.10;1.93;;;;;;;13.17;74.76;97021.47;5096115;28;39714;-84
2021/01/29 13:29:31;;;;;;;4.90;1.37;;;;;;;13.35;71.79;97004.63;5073006;28;43888;-83
2021/01/29 13:32:10;;;;;;;5.60;1.67;;;;;;;13.38;72.46;97042.34;5073124;28;43366;-85
2021/01/29 13:34:42;;;;;;;4.67;1.33;;;;;;;13.24;72.31;97045.56;5085974;28;42649;-83
2021/01/29 13:37:22;;;;;;;6.30;1.50;;;;;;;12.94;72.28;97029.09;5053118;28;38917;-82
2021/01/29 13:39:51;;;;;;;5.77;1.50;;;;;;;12.98;72.61;97042.91;5053807;28;40924;-82
2021/01/29 13:42:23;;;;;;;4.07;1.53;;;;;;;12.78;72.14;97023.66;5115085;27;42692;-82
2021/01/29 13:44:56;;;;;;;5.33;1.57;;;;;;;12.75;71.36;97054.97;5073408;28;41867;-83
2021/01/29 13:47:29;;;;;;;4.27;1.30;;;;;;;12.51;70.12;97043.16;5088984;28;39983;-83
2021/01/29 13:50:12;;;;;;;4.33;1.10;;;;;;;12.18;69.98;97004.03;5073094;28;40547;-84
2021/01/29 13:52:49;;;;;;;4.37;1.40;;;;;;;12.26;69.16;97016.53;5105735;28;43175;-82
2021/01/29 13:55:28;;;;;;;4.07;1.30;;;;;;;12.45;67.66;97049.09;5073608;28;41301;-84
2021/01/29 13:58:01;;;;;;;3.13;1.30;;;;;;;12.24;68.18;96992.81;5072171;28;39899;-82
2021/01/29 14:00:35;;;;;;;2.80;1.37;;;;;;;12.11;66.92;96992.38;5069338;28;40418;-83
2021/01/29 14:03:09;;;;;;;3.50;1.37;;;;;;;12.44;67.65;97039.47;5052018;28;42559;-82
2021/01/29 14:05:37;;;;;;;5.07;1.40;;;;;;;12.38;66.24;97042.69;5052793;28;42164;-84
2021/01/29 14:08:06;;;;;;;4.63;1.13;;;;;;;12.41;67.02;97063.66;5070276;28;39217;-82
2021/01/29 14:10:41;;;;;;;5.20;1.10;;;;;;;12.19;65.80;97048.16;5072972;28;40665;-81
2021/01/29 14:13:32;;;;;;;4.83;1.77;;;;;;;12.25;66.47;97039.59;5071801;28;42044;-82
2021/01/29 14:16:09;;;;;;;4.17;1.50;;;;;;;12.22;66.10;97042.56;5089197;28;41573;-83
2021/01/29 14:18:50;;;;;;;7.13;1.70;;;;;;;12.09;66.66;97047.41;5089496;28;38710;-82
2021/01/29 14:21:25;;;;;;;3.07;1.30;;;;;;;11.72;66.72;96992.59;5072913;28;41037;-81
2021/01/29 14:23:59;;;;;;;4.50;1.43;;;;;;;11.90;66.94;97039.53;5072458;28;41733;-82
2021/01/29 14:26:36;;;;;;;4.43;1.77;;;;;;;11.58;67.02;96979.00;5078567;28;42680;-82
2021/01/29 14:29:10;;;;;;;3.90;1.43;;;;;;;11.68;65.91;96985.91;5071744;28;40225;-81
2021/01/29 14:31:47;;;;;;;5.43;1.37;;;;;;;12.11;66.36;97046.28;5088854;28;41732;-81
2021/01/29 14:34:28;;;;;;;3.07;1.60;;;;;;;12.07;66.67;97028.13;5058966;28;41595;-82
2021/01/29 14:37:07;;;;;;;5.63;1.53;;;;;;;12.16;66.38;97045.81;5089435;28;42001;-82
2021/01/29 14:40:03;;;;;;;4.93;1.53;;;;;;;12.14;67.02;97039.81;5122583;27;40473;-82
2021/01/29 14:42:46;;;;;;;2.80;1.13;;;;;;;11.84;66.92;97002.03;5104871;28;43045;-83
2021/01/29 14:45:30;;;;;;;3.83;1.20;;;;;;;11.99;65.63;97057.25;5072799;28;41999;-83
2021/01/29 14:48:10;;;;;;;6.33;2.10;;;;;;;11.88;66.50;97045.00;5071630;28;41161;-83
2021/01/29 14:50:52;;;;;;;3.53;1.30;;;;;;;11.81;66.16;97054.53;5091125;28;39899;-83
2021/01/29 14:53:31;;;;;;;4.83;1.23;;;;;;;11.70;65.69;97046.75;5066933;28;42379;-80
2021/01/29 14:56:07;;;;;;;3.63;1.30;;;;;;;11.70;65.85;97063.50;5051853;28;41674;-81
2021/01/29 14:58:38;;;;;;;4.73;1.23;;;;;;;11.55;65.57;97053.50;5102347;28;42891;-84
2021/01/29 15:01:11;;;;;;;3.17;1.13;;;;;;;11.31;65.80;97061.97;5067941;28;39173;-79
2021/01/29 15:03:44;;;;;;;2.83;1.03;;;;;;;11.30;65.50;97069.06;5083654;28;40989;-85
2021/01/29 15:06:18;;;;;;;2.70;0.90;;;;;;;10.89;66.19;97019.13;5050543;28;43476;-83
2021/01/29 15:08:50;;;;;;;3.80;1.37;;;;;;;10.87;66.83;97011.34;5066161;28;41335;-84
2021/01/29 15:11:20;;;;;;;3.60;1.13;;;;;;;11.23;67.72;97075.09;5071060;28;39061;-84
2021/01/29 15:13:56;;;;;;;4.23;1.70;;;;;;;10.90;67.26;97053.41;5071265;28;40847;-81
2021/01/29 15:16:48;;;;;;;4.63;1.33;;;;;;;10.74;67.29;97038.13;5072785;28;42481;-82
2021/01/29 15:19:39;;;;;;;3.90;1.30;;;;;;;11.12;68.05;97092.00;5088819;28;41870;-81
2021/01/29 15:22:20;;;;;;;3.87;1.30;;;;;;;10.82;67.70;97055.94;5072119;28;39998;-83
2021/01/29 15:24:52;;;;;;;4.47;1.37;;;;;;;10.99;67.99;97072.91;5093871;28;41929;-84
2021/01/29 15:27:32;;;;;;;4.70;1.43;;;;;;;10.91;67.98;97081.56;5074349;28;42054;-84
2021/01/29 15:30:08;;;;;;;6.47;1.87;;;;;;;10.88;68.20;97092.41;5109476;28;41519;-82
2021/01/29 15:32:38;;;;;;;5.87;1.67;;;;;;;10.66;68.37;97066.25;5075704;28;39555;-82
2021/01/29 15:35:29;;;;;;;3.83;1.30;;;;;;;10.67;68.66;97094.38;5092175;28;41831;-82
2021/01/29 15:38:04;;;;;;;3.23;1.10;;;;;;;10.56;69.18;97095.38;5092099;28;41930;-88
2021/01/29 15:40:40;;;;;;;9.07;3.07;;;;;;;10.52;70.02;97085.19;5093692;28;41844;-82
2021/01/29 15:43:49;;;;;;;4.37;1.50;;;;;;;10.47;70.34;97090.91;5109014;28;38954;-83
2021/01/29 15:49:41;;;;;;;4.60;1.93;;;;;;;10.31;71.30;97082.66;5073508;28;42812;-82
2021/01/29 15:52:15;;;;;;;5.40;1.50;;;;;;;10.33;71.39;97097.44;5091483;28;42774;-81
2021/01/29 15:55:01;;;;;;;5.07;1.70;;;;;;;10.32;72.06;97101.06;5091611;28;39541;-80
2021/01/29 15:57:36;;;;;;;4.73;1.50;;;;;;;10.32;71.73;97092.28;5072660;28;41422;-83
2021/01/29 16:00:47;;;;;;;4.90;1.70;;;;;;;10.33;71.71;97091.31;5072344;28;41768;-79
2021/01/29 16:03:39;;;;;;;5.90;2.10;;;;;;;10.30;71.39;97092.41;5083012;28;41498;-80
2021/01/29 16:06:06;;;;;;;4.20;2.07;;;;;;;10.15;71.01;97072.59;5075403;28;41011;-82
2021/01/29 16:08:35;;;;;;;5.30;1.60;;;;;;;10.17;71.22;97101.53;5092501;28;41671;-81
2021/01/29 16:11:20;;;;;;;7.03;1.90;;;;;;;10.06;71.18;97094.56;5093051;28;42863;-85
2021/01/29 16:13:47;;;;;;;3.93;1.30;;;;;;;10.07;71.14;97098.88;5091076;28;41644;-87
2021/01/29 16:16:18;;;;;;;3.57;1.30;;;;;;;10.04;71.16;97097.34;5075355;28;40173;-83
2021/01/29 16:18:50;;;;;;;5.17;1.33;;;;;;;10.03;70.30;97110.69;5091433;28;41109;-83
2021/01/29 16:21:23;;;;;;;2.87;0.97;;;;;;;9.99;70.03;97088.16;5079446;28;42488;-82
2021/01/29 16:23:53;;;;;;;3.03;1.23;;;;;;;10.03;70.12;97102.75;5101386;28;42573;-84
2021/01/29 16:26:25;;;;;;;2.53;0.93;;;;;;;10.04;70.13;97091.22;5071820;28;39554;-83
2021/01/29 16:29:00;;;;;;;5.63;2.00;;;;;;;10.13;70.31;97108.09;5088257;28;41973;-81
2021/01/29 16:31:31;;;;;;;4.13;1.40;;;;;;;10.12;69.78;97115.19;5087727;28;43521;-82
2021/01/29 16:34:05;;;;;;;4.20;1.20;;;;;;;9.95;70.24;97087.59;5089875;28;42103;-83
2021/01/29 16:36:34;;;;;;;3.03;1.50;;;;;;;9.79;70.57;97094.34;5071198;28;38994;-82
2021/01/29 16:39:17;;;;;;;3.03;1.60;;;;;;;9.80;71.27;97106.59;5071184;28;40446;-85
2021/01/29 16:41:44;;;;;;;2.67;1.30;;;;;;;9.73;70.62;97119.53;5071178;28;43518;-82
2021/01/29 16:44:39;;;;;;;3.30;1.60;;;;;;;9.69;71.00;97121.56;5090940;28;42096;-82
2021/01/29 16:47:19;;;;;;;4.87;1.20;;;;;;;9.64;70.92;97115.03;5088887;28;39534;-81
2021/01/29 16:49:46;;;;;;;4.93;1.43;;;;;;;9.54;70.10;97093.81;5075053;28;42749;-87
2021/01/29 16:52:15;;;;;;;3.27;1.73;;;;;;;9.67;69.36;97114.75;5074567;28;41729;-83
2021/01/29 16:54:46;;;;;;;4.00;1.27;;;;;;;9.78;69.25;97119.09;5070459;28;42123;-82
2021/01/29 16:57:19;;;;;;;2.70;1.10;;;;;;;9.84;68.92;97118.56;5074531;28;39381;-81
2021/01/29 16:59:46;;;;;;;2.60;1.00;;;;;;;9.84;68.93;97108.00;5074534;28;41303;-81
2021/01/29 17:02:18;;;;;;;5.03;1.40;;;;;;;9.86;68.91;97114.00;5090525;28;42779;-81
2021/01/29 17:04:49;;;;;;;2.97;1.50;;;;;;;9.83;68.79;97098.41;5090093;28;41840;-81
2021/01/29 17:07:30;;;;;;;2.10;1.30;;;;;;;9.87;68.59;97105.94;5091577;28;39602;-80
2021/01/29 17:10:10;;;;;;;3.17;1.17;;;;;;;9.81;68.15;97095.03;5070389;28;40636;-81
2021/01/29 17:12:38;;;;;;;3.00;1.23;;;;;;;9.94;68.17;97104.41;5089512;28;42418;-82
2021/01/29 17:15:08;;;;;;;5.87;1.43;;;;;;;9.84;68.08;97116.78;5089878;28;42538;-81
2021/01/29 17:17:37;;;;;;;5.23;1.70;;;;;;;9.79;68.46;97124.25;5108024;28;39236;-83
2021/01/29 17:20:05;;;;;;;3.80;0.97;;;;;;;9.81;68.62;97110.91;5074558;28;41692;-81
2021/01/29 17:22:36;;;;;;;3.27;1.30;;;;;;;9.89;68.80;97124.31;5069590;28;42067;-81
2021/01/29 17:25:07;;;;;;;4.43;1.30;;;;;;;9.84;68.80;97111.50;5054327;28;40812;-81
2021/01/29 17:27:36;;;;;;;4.73;1.40;;;;;;;9.98;68.37;97134.09;5089645;28;40680;-83
2021/01/29 17:30:11;;;;;;;2.60;1.40;;;;;;;10.03;68.64;97127.41;5091329;28;40837;-82
2021/01/29 17:32:40;;;;;;;4.40;1.47;;;;;;;10.06;68.59;97134.22;5091272;28;42700;-81
2021/01/29 17:35:12;;;;;;;3.07;1.40;;;;;;;10.08;69.02;97134.94;5092073;28;42373;-80
2021/01/29 17:37:39;;;;;;;4.43;2.20;;;;;;;10.00;68.92;97132.97;5090961;28;40687;-84
2021/01/29 17:40:31;;;;;;;7.13;2.63;;;;;;;10.10;68.63;97140.94;5074296;28;41604;-82
2021/01/29 17:42:59;;;;;;;4.10;2.13;;;;;;;10.02;68.70;97138.09;5063433;28;41800;-84
2021/01/29 17:45:30;;;;;;;3.33;1.50;;;;;;;9.93;69.05;97109.84;5091059;28;41807;-83
2021/01/29 17:48:19;;;;;;;4.27;1.27;;;;;;;10.07;69.45;97133.25;5091127;28;39800;-81
2021/01/29 17:50:48;;;;;;;4.10;1.80;;;;;;;10.04;69.35;97144.09;5091330;28;40620;-81
2021/01/29 17:53:38;;;;;;;2.63;1.40;;;;;;;10.02;69.66;97140.75;5090707;28;42937;-83
2021/01/29 17:56:30;;;;;;;2.37;1.70;;;;;;;9.89;70.18;97119.03;5073604;28;41989;-82
2021/01/29 17:58:57;;;;;;;4.87;1.80;;;;;;;9.94;70.35;97143.25;5090195;28;39039;-84
2021/01/29 18:01:26;;;;;;;2.13;1.30;;;;;;;9.68;70.81;97111.97;5091317;28;40595;-82
2021/01/29 18:04:02;;;;;;;3.97;1.63;;;;;;;9.82;70.95;97139.03;5073692;28;42854;-82
2021/01/29 18:06:44;;;;;;;3.50;1.97;;;;;;;9.90;71.34;97149.75;5090767;28;42258;-81
2021/01/29 18:09:22;;;;;;;4.83;1.30;;;;;;;9.81;70.28;97145.28;5076954;28;39366;-81
2021/01/29 18:12:02;;;;;;;3.60;1.53;;;;;;;9.65;70.68;97124.59;5086946;28;41336;-81
2021/01/29 18:14:35;;;;;;;3.20;1.27;;;;;;;9.75;70.34;97153.75;5072853;28;41617;-81
2021/01/29 18:17:08;;;;;;;2.00;1.20;;;;;;;9.67;70.40;97136.72;5090696;28;42190;-84
2021/01/29 18:19:47;;;;;;;1.97;1.00;;;;;;;9.81;70.49;97158.50;5089900;28;40652;-84
2021/01/29 18:22:21;;;;;;;2.63;1.30;;;;;;;9.71;70.78;97143.44;5090636;28;41544;-82
2021/01/29 18:24:49;;;;;;;2.60;1.43;;;;;;;9.50;70.57;97103.00;5108210;27;42952;-83
2021/01/29 18:27:17;;;;;;;1.87;1.30;;;;;;;9.72;70.75;97139.81;5087020;28;42950;-81
2021/01/29 18:29:45;;;;;;;3.13;1.00;;;;;;;9.56;71.36;97112.19;5086622;28;39841;-83
2021/01/29 18:32:15;;;;;;;4.13;1.53;;;;;;;9.80;71.46;97151.53;5072431;28;41468;-81
2021/01/29 18:34:44;;;;;;;1.67;1.03;;;;;;;9.80;71.43;97156.81;5073355;28;42991;-82
2021/01/29 18:37:11;;;;;;;1.97;1.10;;;;;;;9.77;71.52;97163.19;5073655;28;41262;-85
2021/01/29 18:39:39;;;;;;;2.80;0.90;;;;;;;9.70;71.78;97162.06;5091760;28;39882;-81
2021/01/29 18:42:06;;;;;;;2.17;1.10;;;;;;;9.60;72.13;97162.03;5073209;28;40828;-82
2021/01/29 18:44:33;;;;;;;3.27;1.00;;;;;;;9.52;72.18;97148.59;5090342;28;41645;-83
2021/01/29 18:47:02;;;;;;;2.43;1.10;;;;;;;9.59;72.12;97162.16;5075657;28;41840;-83
2021/01/29 18:49:30;;;;;;;3.90;0.97;;;;;;;9.19;72.10;97103.94;5086391;28;39600;-82
2021/01/29 18:51:58;;;;;;;2.17;1.07;;;;;;;9.57;72.31;97164.91;5069978;28;40683;-81
2021/01/29 18:54:25;;;;;;;2.33;1.23;;;;;;;9.50;72.30;97166.41;5087217;28;41547;-80
2021/01/29 18:56:52;;;;;;;3.63;1.70;;;;;;;9.42;72.36;97150.38;5077895;28;41238;-82
2021/01/29 18:59:19;;;;;;;4.73;1.27;;;;;;;9.50;72.65;97170.88;5075947;28;38849;-81
2021/01/29 19:01:46;;;;;;;3.63;1.30;;;;;;;9.45;72.50;97158.03;5093294;28;40665;-81
2021/01/29 19:04:14;;;;;;;1.53;1.00;;;;;;;9.37;73.03;97152.56;5093577;28;43528;-82
2021/01/29 19:06:42;;;;;;;2.53;1.60;;;;;;;9.33;72.89;97149.34;5093303;28;42228;-83
2021/01/29 19:09:09;;;;;;;3.47;1.93;;;;;;;9.46;73.08;97175.56;5093511;28;40097;-85
2021/01/29 19:11:36;;;;;;;5.33;1.60;;;;;;;9.39;73.27;97174.44;5076538;28;40543;-82
2021/01/29 19:14:03;;;;;;;1.40;1.30;;;;;;;9.35;73.36;97173.84;5076682;28;42472;-84
2021/01/29 19:16:30;;;;;;;3.70;2.10;;;;;;;9.33;73.28;97159.06;5092721;28;42930;-82
